sensor_id;sensor_type;location;lat;lon;timestamp;temperature;humidity
8736;DHT22;4404;49.308;12.178;2022-08-27T00:03:57;19.10;99.90
8736;DHT22;4404;49.308;12.178;2022-08-27T00:10:00;19.10;99.90
8736;DHT22;4404;49.308;12.178;2022-08-27T00:16:05;19.10;99.90
8736;DHT22;4404;49.308;12.178;2022-08-27T00:22:09;19.00;99.90
8736;DHT22;4404;49.308;12.178;2022-08-27T00:28:12;19.00;99.90
8736;DHT22;4404;49.308;12.178;2022-08-27T00:34:16;19.00;99.90
8736;DHT22;4404;49.308;12.178;2022-08-27T00:40:20;19.00;99.90
8736;DHT22;4404;49.308;12.178;2022-08-27T00:46:26;18.90;99.90
8736;DHT22;4404;49.308;12.178;2022-08-27T00:52:44;18.90;99.90
8736;DHT22;4404;49.308;12.178;2022-08-27T00:58:50;18.90;99.90
8736;DHT22;4404;49.308;12.178;2022-08-27T01:04:56;18.90;99.90
8736;DHT22;4404;49.308;12.178;2022-08-27T01:11:08;19.00;99.90
8736;DHT22;4404;49.308;12.178;2022-08-27T01:17:12;18.90;99.90
8736;DHT22;4404;49.308;12.178;2022-08-27T01:23:19;18.90;99.90
8736;DHT22;4404;49.308;12.178;2022-08-27T01:29:26;18.90;99.90
8736;DHT22;4404;49.308;12.178;2022-08-27T01:35:29;18.90;99.90
8736;DHT22;4404;49.308;12.178;2022-08-27T01:41:33;18.90;99.90
8736;DHT22;4404;49.308;12.178;2022-08-27T01:47:37;19.00;99.90
8736;DHT22;4404;49.308;12.178;2022-08-27T01:53:39;19.00;99.90
8736;DHT22;4404;49.308;12.178;2022-08-27T01:59:42;19.00;99.90
8736;DHT22;4404;49.308;12.178;2022-08-27T02:05:47;19.00;99.90
8736;DHT22;4404;49.308;12.178;2022-08-27T02:11:49;18.90;99.90
8736;DHT22;4404;49.308;12.178;2022-08-27T02:17:52;18.80;99.90
8736;DHT22;4404;49.308;12.178;2022-08-27T02:23:56;18.80;99.90
8736;DHT22;4404;49.308;12.178;2022-08-27T02:29:58;18.80;99.90
8736;DHT22;4404;49.308;12.178;2022-08-27T02:36:01;18.80;99.90
8736;DHT22;4404;49.308;12.178;2022-08-27T02:42:05;18.80;99.90
8736;DHT22;4404;49.308;12.178;2022-08-27T02:48:08;18.90;99.90
8736;DHT22;4404;49.308;12.178;2022-08-27T02:54:10;19.00;99.90
8736;DHT22;4404;49.308;12.178;2022-08-27T03:00:17;19.00;99.90
8736;DHT22;4404;49.308;12.178;2022-08-27T03:06:20;19.10;99.90
8736;DHT22;4404;49.308;12.178;2022-08-27T03:12:22;19.20;99.90
8736;DHT22;4404;49.308;12.178;2022-08-27T03:18:26;19.20;99.90
8736;DHT22;4404;49.308;12.178;2022-08-27T03:24:28;19.20;99.90
8736;DHT22;4404;49.308;12.178;2022-08-27T03:30:31;19.10;99.90
8736;DHT22;4404;49.308;12.178;2022-08-27T03:36:34;19.00;99.90
8736;DHT22;4404;49.308;12.178;2022-08-27T03:42:37;19.00;99.90
8736;DHT22;4404;49.308;12.178;2022-08-27T03:48:40;19.00;99.90
8736;DHT22;4404;49.308;12.178;2022-08-27T03:54:44;19.00;99.90
8736;DHT22;4404;49.308;12.178;2022-08-27T04:00:46;18.90;99.90
8736;DHT22;4404;49.308;12.178;2022-08-27T04:06:49;19.00;99.90
8736;DHT22;4404;49.308;12.178;2022-08-27T04:12:53;18.90;99.90
8736;DHT22;4404;49.308;12.178;2022-08-27T04:18:55;18.80;99.90
8736;DHT22;4404;49.308;12.178;2022-08-27T04:24:58;18.80;99.90
8736;DHT22;4404;49.308;12.178;2022-08-27T04:31:03;18.80;99.90
8736;DHT22;4404;49.308;12.178;2022-08-27T04:37:06;18.70;99.90
8736;DHT22;4404;49.308;12.178;2022-08-27T04:43:08;18.60;99.90
8736;DHT22;4404;49.308;12.178;2022-08-27T04:49:13;18.60;99.90
8736;DHT22;4404;49.308;12.178;2022-08-27T04:55:16;18.50;99.90
8736;DHT22;4404;49.308;12.178;2022-08-27T05:01:21;18.60;99.90
8736;DHT22;4404;49.308;12.178;2022-08-27T05:07:26;18.90;99.90
8736;DHT22;4404;49.308;12.178;2022-08-27T05:13:28;18.70;99.90
8736;DHT22;4404;49.308;12.178;2022-08-27T05:19:31;18.80;99.90
8736;DHT22;4404;49.308;12.178;2022-08-27T05:25:37;18.80;99.90
8736;DHT22;4404;49.308;12.178;2022-08-27T05:31:41;18.80;99.90
8736;DHT22;4404;49.308;12.178;2022-08-27T05:37:43;18.70;99.90
8736;DHT22;4404;49.308;12.178;2022-08-27T05:43:47;18.70;99.90
8736;DHT22;4404;49.308;12.178;2022-08-27T05:49:51;18.80;99.90
8736;DHT22;4404;49.308;12.178;2022-08-27T05:55:54;18.90;99.90
8736;DHT22;4404;49.308;12.178;2022-08-27T06:01:58;18.90;99.90
8736;DHT22;4404;49.308;12.178;2022-08-27T06:08:00;18.90;99.90
8736;DHT22;4404;49.308;12.178;2022-08-27T06:14:03;19.10;99.90
8736;DHT22;4404;49.308;12.178;2022-08-27T06:20:07;19.10;99.90
8736;DHT22;4404;49.308;12.178;2022-08-27T06:26:15;19.20;99.90
8736;DHT22;4404;49.308;12.178;2022-08-27T06:32:18;19.40;99.90
8736;DHT22;4404;49.308;12.178;2022-08-27T06:38:22;19.40;99.90
8736;DHT22;4404;49.308;12.178;2022-08-27T06:44:24;19.50;99.90
8736;DHT22;4404;49.308;12.178;2022-08-27T06:50:27;19.60;99.90
8736;DHT22;4404;49.308;12.178;2022-08-27T06:56:31;19.70;99.90
8736;DHT22;4404;49.308;12.178;2022-08-27T07:02:33;19.80;99.90
8736;DHT22;4404;49.308;12.178;2022-08-27T07:08:38;19.80;99.90
8736;DHT22;4404;49.308;12.178;2022-08-27T07:14:42;19.80;99.90
8736;DHT22;4404;49.308;12.178;2022-08-27T07:20:45;19.80;99.90
8736;DHT22;4404;49.308;12.178;2022-08-27T07:26:47;19.90;99.90
8736;DHT22;4404;49.308;12.178;2022-08-27T07:32:51;19.90;99.90
8736;DHT22;4404;49.308;12.178;2022-08-27T07:38:53;20.00;99.90
8736;DHT22;4404;49.308;12.178;2022-08-27T07:44:56;20.10;99.90
8736;DHT22;4404;49.308;12.178;2022-08-27T07:51:00;20.10;99.90
8736;DHT22;4404;49.308;12.178;2022-08-27T07:57:05;20.20;99.90
8736;DHT22;4404;49.308;12.178;2022-08-27T08:03:07;20.30;99.90
8736;DHT22;4404;49.308;12.178;2022-08-27T08:09:11;20.40;99.90
8736;DHT22;4404;49.308;12.178;2022-08-27T08:15:14;20.50;99.90
8736;DHT22;4404;49.308;12.178;2022-08-27T08:21:18;20.60;99.90
8736;DHT22;4404;49.308;12.178;2022-08-27T08:27:21;20.70;99.90
8736;DHT22;4404;49.308;12.178;2022-08-27T08:33:24;20.80;99.90
8736;DHT22;4404;49.308;12.178;2022-08-27T08:39:28;20.80;99.90
8736;DHT22;4404;49.308;12.178;2022-08-27T08:45:33;20.80;99.90
8736;DHT22;4404;49.308;12.178;2022-08-27T08:51:39;20.70;99.90
8736;DHT22;4404;49.308;12.178;2022-08-27T08:57:47;20.80;99.90
8736;DHT22;4404;49.308;12.178;2022-08-27T09:03:56;20.80;99.90
8736;DHT22;4404;49.308;12.178;2022-08-27T09:10:09;20.80;99.90
8736;DHT22;4404;49.308;12.178;2022-08-27T09:16:15;20.80;99.90
8736;DHT22;4404;49.308;12.178;2022-08-27T09:22:22;20.80;99.90
8736;DHT22;4404;49.308;12.178;2022-08-27T09:28:28;20.90;99.90
8736;DHT22;4404;49.308;12.178;2022-08-27T09:34:47;20.90;99.90
8736;DHT22;4404;49.308;12.178;2022-08-27T09:40:52;20.90;99.90
8736;DHT22;4404;49.308;12.178;2022-08-27T09:46:59;20.90;99.90
8736;DHT22;4404;49.308;12.178;2022-08-27T09:53:03;21.00;99.90
8736;DHT22;4404;49.308;12.178;2022-08-27T09:59:08;21.10;99.90
8736;DHT22;4404;49.308;12.178;2022-08-27T10:05:15;21.10;99.90
8736;DHT22;4404;49.308;12.178;2022-08-27T10:11:33;21.10;99.90
8736;DHT22;4404;49.308;12.178;2022-08-27T10:17:47;21.10;99.90
8736;DHT22;4404;49.308;12.178;2022-08-27T10:24:11;21.20;99.90
8736;DHT22;4404;49.308;12.178;2022-08-27T10:30:19;21.30;99.90
8736;DHT22;4404;49.308;12.178;2022-08-27T10:36:36;21.40;99.90
8736;DHT22;4404;49.308;12.178;2022-08-27T10:42:51;21.50;99.90
8736;DHT22;4404;49.308;12.178;2022-08-27T10:49:06;21.50;99.90
8736;DHT22;4404;49.308;12.178;2022-08-27T10:55:19;21.50;99.90
8736;DHT22;4404;49.308;12.178;2022-08-27T11:01:33;21.40;99.90
8736;DHT22;4404;49.308;12.178;2022-08-27T11:07:43;21.50;99.90
8736;DHT22;4404;49.308;12.178;2022-08-27T11:13:51;21.60;99.90
8736;DHT22;4404;49.308;12.178;2022-08-27T11:19:58;21.60;99.90
8736;DHT22;4404;49.308;12.178;2022-08-27T11:26:06;21.60;99.90
8736;DHT22;4404;49.308;12.178;2022-08-27T11:32:18;21.70;99.90
8736;DHT22;4404;49.308;12.178;2022-08-27T11:38:42;21.70;99.90
8736;DHT22;4404;49.308;12.178;2022-08-27T11:44:48;21.70;99.90
8736;DHT22;4404;49.308;12.178;2022-08-27T11:50:57;21.70;99.90
8736;DHT22;4404;49.308;12.178;2022-08-27T11:57:02;21.70;99.90
8736;DHT22;4404;49.308;12.178;2022-08-27T12:03:24;21.80;99.90
8736;DHT22;4404;49.308;12.178;2022-08-27T12:09:49;21.90;99.90
8736;DHT22;4404;49.308;12.178;2022-08-27T12:16:04;22.00;99.90
8736;DHT22;4404;49.308;12.178;2022-08-27T12:22:39;22.10;99.90
8736;DHT22;4404;49.308;12.178;2022-08-27T12:29:38;22.20;99.90
8736;DHT22;4404;49.308;12.178;2022-08-27T12:35:45;22.30;99.90
8736;DHT22;4404;49.308;12.178;2022-08-27T12:41:49;22.40;99.90
8736;DHT22;4404;49.308;12.178;2022-08-27T12:47:55;22.40;99.90
8736;DHT22;4404;49.308;12.178;2022-08-27T12:54:03;22.40;99.90
8736;DHT22;4404;49.308;12.178;2022-08-27T13:00:13;22.50;99.90
8736;DHT22;4404;49.308;12.178;2022-08-27T13:06:27;22.50;99.90
8736;DHT22;4404;49.308;12.178;2022-08-27T13:12:32;22.50;99.90
8736;DHT22;4404;49.308;12.178;2022-08-27T13:18:35;22.50;99.90
8736;DHT22;4404;49.308;12.178;2022-08-27T13:24:48;22.50;99.90
8736;DHT22;4404;49.308;12.178;2022-08-27T13:30:52;22.50;99.90
8736;DHT22;4404;49.308;12.178;2022-08-27T13:36:57;22.60;99.90
8736;DHT22;4404;49.308;12.178;2022-08-27T13:43:06;22.70;99.90
8736;DHT22;4404;49.308;12.178;2022-08-27T13:49:14;23.10;99.90
8736;DHT22;4404;49.308;12.178;2022-08-27T13:55:21;23.30;99.90
8736;DHT22;4404;49.308;12.178;2022-08-27T14:01:28;23.60;99.90
8736;DHT22;4404;49.308;12.178;2022-08-27T14:07:33;23.70;99.90
8736;DHT22;4404;49.308;12.178;2022-08-27T14:13:40;23.90;99.90
8736;DHT22;4404;49.308;12.178;2022-08-27T14:19:48;24.10;99.90
8736;DHT22;4404;49.308;12.178;2022-08-27T14:25:52;24.10;99.90
8736;DHT22;4404;49.308;12.178;2022-08-27T14:31:57;24.10;99.90
8736;DHT22;4404;49.308;12.178;2022-08-27T14:38:05;24.20;99.90
8736;DHT22;4404;49.308;12.178;2022-08-27T14:44:11;24.30;99.90
8736;DHT22;4404;49.308;12.178;2022-08-27T14:50:14;24.40;99.90
8736;DHT22;4404;49.308;12.178;2022-08-27T14:56:18;24.50;99.90
8736;DHT22;4404;49.308;12.178;2022-08-27T15:02:21;24.50;99.90
8736;DHT22;4404;49.308;12.178;2022-08-27T15:08:24;24.20;99.90
8736;DHT22;4404;49.308;12.178;2022-08-27T15:14:31;24.00;99.90
8736;DHT22;4404;49.308;12.178;2022-08-27T15:20:36;23.80;99.90
8736;DHT22;4404;49.308;12.178;2022-08-27T15:26:40;23.80;99.90
8736;DHT22;4404;49.308;12.178;2022-08-27T15:32:46;24.00;99.90
8736;DHT22;4404;49.308;12.178;2022-08-27T15:38:49;24.10;99.90
8736;DHT22;4404;49.308;12.178;2022-08-27T15:44:53;24.00;99.90
8736;DHT22;4404;49.308;12.178;2022-08-27T15:50:59;24.00;99.90
8736;DHT22;4404;49.308;12.178;2022-08-27T15:57:04;24.00;99.90
8736;DHT22;4404;49.308;12.178;2022-08-27T16:03:09;23.80;99.90
8736;DHT22;4404;49.308;12.178;2022-08-27T16:09:14;23.60;99.90
8736;DHT22;4404;49.308;12.178;2022-08-27T16:15:17;23.40;99.90
8736;DHT22;4404;49.308;12.178;2022-08-27T16:21:19;23.40;99.90
8736;DHT22;4404;49.308;12.178;2022-08-27T16:27:23;23.30;99.90
8736;DHT22;4404;49.308;12.178;2022-08-27T16:33:25;23.20;99.90
8736;DHT22;4404;49.308;12.178;2022-08-27T16:39:30;23.00;99.90
8736;DHT22;4404;49.308;12.178;2022-08-27T16:45:33;22.90;99.90
8736;DHT22;4404;49.308;12.178;2022-08-27T16:51:36;22.80;99.90
8736;DHT22;4404;49.308;12.178;2022-08-27T16:57:39;22.70;99.90
8736;DHT22;4404;49.308;12.178;2022-08-27T17:03:46;22.50;99.90
8736;DHT22;4404;49.308;12.178;2022-08-27T17:09:50;22.40;99.90
8736;DHT22;4404;49.308;12.178;2022-08-27T17:15:53;22.10;99.90
8736;DHT22;4404;49.308;12.178;2022-08-27T17:21:57;22.00;99.90
8736;DHT22;4404;49.308;12.178;2022-08-27T17:28:01;21.80;99.90
8736;DHT22;4404;49.308;12.178;2022-08-27T17:34:05;21.80;99.90
8736;DHT22;4404;49.308;12.178;2022-08-27T17:40:16;21.70;99.90
8736;DHT22;4404;49.308;12.178;2022-08-27T17:46:19;21.60;99.90
8736;DHT22;4404;49.308;12.178;2022-08-27T17:52:22;21.60;99.90
8736;DHT22;4404;49.308;12.178;2022-08-27T17:58:25;21.40;99.90
8736;DHT22;4404;49.308;12.178;2022-08-27T18:04:28;21.40;99.90
8736;DHT22;4404;49.308;12.178;2022-08-27T18:10:31;21.30;99.90
8736;DHT22;4404;49.308;12.178;2022-08-27T18:16:35;21.20;99.90
8736;DHT22;4404;49.308;12.178;2022-08-27T18:22:38;21.10;99.90
8736;DHT22;4404;49.308;12.178;2022-08-27T18:28:41;21.10;99.90
8736;DHT22;4404;49.308;12.178;2022-08-27T18:34:45;21.00;99.90
8736;DHT22;4404;49.308;12.178;2022-08-27T18:40:48;21.00;99.90
8736;DHT22;4404;49.308;12.178;2022-08-27T18:46:51;20.90;99.90
8736;DHT22;4404;49.308;12.178;2022-08-27T18:52:56;20.90;99.90
8736;DHT22;4404;49.308;12.178;2022-08-27T18:58:58;20.80;99.90
8736;DHT22;4404;49.308;12.178;2022-08-27T19:05:00;20.90;99.90
8736;DHT22;4404;49.308;12.178;2022-08-27T19:11:06;20.90;99.90
8736;DHT22;4404;49.308;12.178;2022-08-27T19:17:10;20.90;99.90
8736;DHT22;4404;49.308;12.178;2022-08-27T19:23:23;20.90;99.90
8736;DHT22;4404;49.308;12.178;2022-08-27T19:29:27;21.00;99.90
8736;DHT22;4404;49.308;12.178;2022-08-27T19:35:30;21.00;99.90
8736;DHT22;4404;49.308;12.178;2022-08-27T19:41:32;21.00;99.90
8736;DHT22;4404;49.308;12.178;2022-08-27T19:47:36;21.00;99.90
8736;DHT22;4404;49.308;12.178;2022-08-27T19:53:39;21.10;99.90
8736;DHT22;4404;49.308;12.178;2022-08-27T19:59:41;21.10;99.90
8736;DHT22;4404;49.308;12.178;2022-08-27T20:05:48;21.10;99.90
8736;DHT22;4404;49.308;12.178;2022-08-27T20:11:51;21.00;99.90
8736;DHT22;4404;49.308;12.178;2022-08-27T20:17:54;21.10;99.90
8736;DHT22;4404;49.308;12.178;2022-08-27T20:24:00;21.10;99.90
8736;DHT22;4404;49.308;12.178;2022-08-27T20:30:04;21.10;99.90
8736;DHT22;4404;49.308;12.178;2022-08-27T20:36:07;21.10;99.90
8736;DHT22;4404;49.308;12.178;2022-08-27T20:42:12;21.10;99.90
8736;DHT22;4404;49.308;12.178;2022-08-27T20:48:14;21.10;99.90
8736;DHT22;4404;49.308;12.178;2022-08-27T20:54:17;21.00;99.90
8736;DHT22;4404;49.308;12.178;2022-08-27T21:00:21;21.00;99.90
8736;DHT22;4404;49.308;12.178;2022-08-27T21:06:24;21.00;99.90
8736;DHT22;4404;49.308;12.178;2022-08-27T21:12:28;20.90;99.90
8736;DHT22;4404;49.308;12.178;2022-08-27T21:18:32;20.80;99.90
8736;DHT22;4404;49.308;12.178;2022-08-27T21:24:34;20.80;99.90
8736;DHT22;4404;49.308;12.178;2022-08-27T21:30:36;20.80;99.90
8736;DHT22;4404;49.308;12.178;2022-08-27T21:36:40;20.80;99.90
8736;DHT22;4404;49.308;12.178;2022-08-27T21:42:43;20.80;99.90
8736;DHT22;4404;49.308;12.178;2022-08-27T21:48:45;20.70;99.90
8736;DHT22;4404;49.308;12.178;2022-08-27T21:54:49;20.70;99.90
8736;DHT22;4404;49.308;12.178;2022-08-27T22:00:51;20.60;99.90
8736;DHT22;4404;49.308;12.178;2022-08-27T22:06:54;20.70;99.90
8736;DHT22;4404;49.308;12.178;2022-08-27T22:12:58;20.60;99.90
8736;DHT22;4404;49.308;12.178;2022-08-27T22:19:00;20.60;99.90
8736;DHT22;4404;49.308;12.178;2022-08-27T22:25:04;20.60;99.90
8736;DHT22;4404;49.308;12.178;2022-08-27T22:31:08;20.60;99.90
8736;DHT22;4404;49.308;12.178;2022-08-27T22:37:10;20.60;99.90
8736;DHT22;4404;49.308;12.178;2022-08-27T22:43:13;20.60;99.90
8736;DHT22;4404;49.308;12.178;2022-08-27T22:49:17;20.60;99.90
8736;DHT22;4404;49.308;12.178;2022-08-27T22:55:22;20.60;99.90
8736;DHT22;4404;49.308;12.178;2022-08-27T23:01:24;20.60;99.90
8736;DHT22;4404;49.308;12.178;2022-08-27T23:07:28;20.70;99.90
8736;DHT22;4404;49.308;12.178;2022-08-27T23:13:31;20.70;99.90
8736;DHT22;4404;49.308;12.178;2022-08-27T23:19:34;20.70;99.90
8736;DHT22;4404;49.308;12.178;2022-08-27T23:25:38;20.60;99.90
8736;DHT22;4404;49.308;12.178;2022-08-27T23:31:57;20.60;99.90
8736;DHT22;4404;49.308;12.178;2022-08-27T23:38:00;20.60;99.90
8736;DHT22;4404;49.308;12.178;2022-08-27T23:44:04;20.60;99.90
8736;DHT22;4404;49.308;12.178;2022-08-27T23:50:07;20.60;99.90
8736;DHT22;4404;49.308;12.178;2022-08-27T23:56:11;20.60;99.90
